createdAt,value
2022-10-22T00:00:09.815Z,12.00
2022-10-22T00:02:36.876Z,11.98
2022-10-22T00:05:04.376Z,11.99
2022-10-22T00:07:31.339Z,11.97
2022-10-22T00:09:57.807Z,11.97
2022-10-22T00:12:25.216Z,11.95
2022-10-22T00:14:51.739Z,11.94
2022-10-22T00:17:18.552Z,11.93
2022-10-22T00:19:45.339Z,11.92
2022-10-22T00:22:12.710Z,11.91
2022-10-22T00:24:39.926Z,11.92
2022-10-22T00:27:08.706Z,11.91
2022-10-22T00:29:35.733Z,11.87
2022-10-22T00:32:02.711Z,11.87
2022-10-22T00:34:29.418Z,11.88
2022-10-22T00:36:56.179Z,11.86
2022-10-22T00:39:24.805Z,11.84
2022-10-22T00:41:53.586Z,11.81
2022-10-22T00:44:57.658Z,11.82
2022-10-22T00:47:31.947Z,11.70
2022-10-22T00:50:00.557Z,11.82
2022-10-22T00:52:30.456Z,11.83
2022-10-22T00:54:57.954Z,11.79
2022-10-22T00:57:24.685Z,11.70
2022-10-22T00:59:52.293Z,11.81
2022-10-22T01:02:25.106Z,11.82
2022-10-22T01:07:43.035Z,11.79
2022-10-22T01:10:39.399Z,11.77
2022-10-22T01:13:05.749Z,11.77
2022-10-22T01:15:43.535Z,11.77
2022-10-22T01:18:20.987Z,11.74
2022-10-22T01:21:08.117Z,11.72
2022-10-22T01:24:06.681Z,11.71
2022-10-22T01:26:51.907Z,11.70
2022-10-22T01:29:37.487Z,11.68
2022-10-22T01:32:12.743Z,11.67
2022-10-22T01:34:44.131Z,11.65
2022-10-22T01:37:14.075Z,11.60
2022-10-22T01:39:43.609Z,11.59
2022-10-22T01:42:12.631Z,11.60
2022-10-22T01:44:39.123Z,11.58
2022-10-22T01:47:15.731Z,11.57
2022-10-22T01:49:52.163Z,11.57
2022-10-22T01:52:45.955Z,11.57
2022-10-22T01:55:18.167Z,11.57
2022-10-22T01:57:57.878Z,11.58
2022-10-22T02:00:24.729Z,11.57
2022-10-22T02:02:51.157Z,11.60
2022-10-22T02:05:39.330Z,11.60
2022-10-22T02:08:11.259Z,11.58
2022-10-22T02:10:40.658Z,11.57
2022-10-22T02:13:12.338Z,11.55
2022-10-22T02:15:39.932Z,11.54
2022-10-22T02:18:09.661Z,11.53
2022-10-22T02:20:38.522Z,11.52
2022-10-22T02:23:05.640Z,11.52
2022-10-22T02:25:36.282Z,11.50
2022-10-22T02:28:08.343Z,11.48
2022-10-22T02:30:38.527Z,11.46
2022-10-22T02:33:16.594Z,11.44
2022-10-22T02:35:43.873Z,11.44
2022-10-22T02:38:12.669Z,11.41
2022-10-22T02:40:39.525Z,11.38
2022-10-22T02:43:06.708Z,11.34
2022-10-22T02:45:34.673Z,11.30
2022-10-22T02:48:01.637Z,11.25
2022-10-22T02:50:28.242Z,11.23
2022-10-22T02:52:54.705Z,11.22
2022-10-22T02:55:21.378Z,11.20
2022-10-22T02:57:47.897Z,11.20
2022-10-22T03:00:14.723Z,11.17
2022-10-22T03:02:41.181Z,11.15
2022-10-22T03:05:08.196Z,11.12
2022-10-22T03:07:34.745Z,11.10
2022-10-22T03:10:01.181Z,11.08
2022-10-22T03:12:27.680Z,11.07
2022-10-22T03:14:54.091Z,11.05
2022-10-22T03:17:20.511Z,11.02
2022-10-22T03:19:47.007Z,11.01
2022-10-22T03:22:29.365Z,10.97
2022-10-22T03:25:00.625Z,10.95
2022-10-22T03:27:29.209Z,10.95
2022-10-22T03:29:57.981Z,10.92
2022-10-22T03:32:24.443Z,10.89
2022-10-22T03:34:51.006Z,10.89
2022-10-22T03:37:17.655Z,10.87
2022-10-22T03:39:44.168Z,10.90
2022-10-22T03:42:11.513Z,10.92
2022-10-22T03:44:38.464Z,10.91
2022-10-22T03:47:05.783Z,10.91
2022-10-22T03:49:32.886Z,10.89
2022-10-22T03:52:08.792Z,10.90
2022-10-22T03:54:36.305Z,10.87
2022-10-22T03:57:04.510Z,10.86
2022-10-22T03:59:39.515Z,10.84
2022-10-22T04:02:06.109Z,10.81
2022-10-22T04:04:32.823Z,10.82
2022-10-22T04:06:59.550Z,10.75
2022-10-22T04:09:25.970Z,10.73
2022-10-22T04:11:52.418Z,10.70
2022-10-22T04:14:18.880Z,10.69
2022-10-22T04:16:45.308Z,10.67
2022-10-22T04:19:11.709Z,10.63
2022-10-22T04:21:38.121Z,10.60
2022-10-22T04:24:04.695Z,10.59
2022-10-22T04:26:31.158Z,10.54
2022-10-22T04:28:57.651Z,10.52
2022-10-22T04:31:26.107Z,10.47
2022-10-22T04:33:57.887Z,10.42
2022-10-22T04:36:24.881Z,10.36
2022-10-22T04:39:00.404Z,10.36
2022-10-22T04:41:30.002Z,10.34
2022-10-22T04:43:57.325Z,10.30
2022-10-22T04:46:27.683Z,10.29
2022-10-22T04:48:54.150Z,10.28
2022-10-22T04:51:22.786Z,10.27
2022-10-22T04:53:49.899Z,10.26
2022-10-22T04:56:22.650Z,10.26
2022-10-22T04:58:51.493Z,10.26
2022-10-22T05:01:20.747Z,10.26
2022-10-22T05:03:49.401Z,10.28
2022-10-22T05:06:16.819Z,10.27
2022-10-22T05:08:43.602Z,10.31
2022-10-22T05:11:35.009Z,10.32
2022-10-22T05:14:04.211Z,10.33
2022-10-22T05:16:31.771Z,10.36
2022-10-22T05:19:00.328Z,10.35
2022-10-22T05:21:27.162Z,10.40
2022-10-22T05:23:54.918Z,10.47
2022-10-22T05:26:22.708Z,10.49
2022-10-22T05:28:50.029Z,10.68
2022-10-22T05:31:17.580Z,10.73
2022-10-22T05:33:44.444Z,10.78
2022-10-22T05:36:14.333Z,10.93
2022-10-22T05:38:40.786Z,11.01
2022-10-22T05:41:13.176Z,11.29
2022-10-22T05:43:39.983Z,11.54
2022-10-22T05:46:22.973Z,11.59
2022-10-22T05:48:51.239Z,11.71
2022-10-22T05:51:17.700Z,11.87
2022-10-22T05:53:44.787Z,11.93
2022-10-22T05:56:13.867Z,12.02
2022-10-22T05:58:40.992Z,12.12
2022-10-22T06:01:12.313Z,12.20
2022-10-22T06:03:38.987Z,12.31
2022-10-22T06:06:17.187Z,12.38
2022-10-22T06:08:44.134Z,12.46
2022-10-22T06:11:10.693Z,12.50
2022-10-22T06:13:37.190Z,12.54
2022-10-22T06:16:03.713Z,12.57
2022-10-22T06:18:30.145Z,12.63
2022-10-22T06:20:56.603Z,12.65
2022-10-22T06:23:23.042Z,12.68
2022-10-22T06:25:57.739Z,12.69
2022-10-22T06:30:58.671Z,12.75
2022-10-22T06:33:26.091Z,12.76
2022-10-22T06:35:52.619Z,12.82
2022-10-22T06:38:19.620Z,12.87
2022-10-22T06:40:46.164Z,12.95
2022-10-22T06:43:13.958Z,12.99
2022-10-22T06:45:41.100Z,13.08
2022-10-22T06:48:07.593Z,13.14
2022-10-22T06:50:35.467Z,13.19
2022-10-22T06:53:02.014Z,13.36
2022-10-22T06:55:28.663Z,13.64
2022-10-22T06:57:55.746Z,13.94
2022-10-22T07:00:22.450Z,14.19
2022-10-22T07:02:57.646Z,14.37
2022-10-22T07:05:25.724Z,14.53
2022-10-22T07:07:52.131Z,14.66
2022-10-22T07:10:18.805Z,14.87
2022-10-22T07:12:45.291Z,15.01
2022-10-22T07:15:11.965Z,15.04
2022-10-22T07:17:41.396Z,15.05
2022-10-22T07:20:08.360Z,15.02
2022-10-22T07:22:35.184Z,14.98
2022-10-22T07:25:07.191Z,14.86
2022-10-22T07:27:34.162Z,14.86
2022-10-22T07:30:01.455Z,14.84
2022-10-22T07:32:28.315Z,14.83
2022-10-22T07:34:54.774Z,14.81
2022-10-22T07:37:22.071Z,14.77
2022-10-22T07:39:49.659Z,14.82
2022-10-22T07:42:16.480Z,14.77
2022-10-22T07:44:43.029Z,14.66
2022-10-22T07:47:09.540Z,14.75
2022-10-22T07:49:35.983Z,14.71
2022-10-22T07:52:02.440Z,14.78
2022-10-22T07:54:28.852Z,14.79
2022-10-22T07:56:55.329Z,14.79
2022-10-22T07:59:21.807Z,14.76
2022-10-22T08:01:48.271Z,14.69
2022-10-22T08:04:14.858Z,14.69
2022-10-22T08:06:44.567Z,14.68
2022-10-22T08:09:14.338Z,14.68
2022-10-22T08:11:40.803Z,14.71
2022-10-22T08:14:07.300Z,14.72
2022-10-22T08:16:33.730Z,14.68
2022-10-22T08:19:00.161Z,14.70
2022-10-22T08:21:26.810Z,14.72
2022-10-22T08:23:53.386Z,14.77
2022-10-22T08:26:19.949Z,14.79
2022-10-22T08:28:46.408Z,14.84
2022-10-22T08:31:13.467Z,14.86
2022-10-22T08:33:40.149Z,14.91
2022-10-22T08:36:07.493Z,14.98
2022-10-22T08:38:35.194Z,15.02
2022-10-22T08:41:10.361Z,15.06
2022-10-22T08:43:55.253Z,15.19
2022-10-22T08:46:30.266Z,15.39
2022-10-22T08:49:00.195Z,15.53
2022-10-22T08:51:31.174Z,15.89
2022-10-22T08:54:16.160Z,16.17
2022-10-22T08:57:04.130Z,16.15
2022-10-22T08:59:54.061Z,16.29
2022-10-22T09:02:48.380Z,16.41
2022-10-22T09:05:53.336Z,16.38
2022-10-22T09:08:20.702Z,16.21
2022-10-22T09:10:52.401Z,16.22
2022-10-22T09:13:21.177Z,16.19
2022-10-22T09:15:54.547Z,16.15
2022-10-22T09:18:39.205Z,16.17
2022-10-22T09:21:27.209Z,16.05
2022-10-22T09:24:16.862Z,15.95
2022-10-22T09:26:43.257Z,15.92
2022-10-22T09:29:23.227Z,15.92
2022-10-22T09:31:49.968Z,15.91
2022-10-22T09:34:21.249Z,15.89
2022-10-22T09:36:47.776Z,15.92
2022-10-22T09:39:31.794Z,15.92
2022-10-22T09:41:58.445Z,15.85
2022-10-22T09:44:24.945Z,15.83
2022-10-22T09:46:51.644Z,15.86
2022-10-22T09:49:21.241Z,15.86
2022-10-22T09:51:55.550Z,15.90
2022-10-22T09:54:25.654Z,15.83
2022-10-22T09:56:58.377Z,15.86
2022-10-22T09:59:29.161Z,15.89
2022-10-22T10:02:13.617Z,15.84
2022-10-22T10:04:47.790Z,15.84
2022-10-22T10:07:20.280Z,15.88
2022-10-22T10:09:47.755Z,15.94
2022-10-22T10:12:32.368Z,15.97
2022-10-22T10:15:17.680Z,15.94
2022-10-22T10:17:58.241Z,15.96
2022-10-22T10:20:27.745Z,15.97
2022-10-22T10:23:03.246Z,15.96
2022-10-22T10:25:54.004Z,15.96
2022-10-22T10:28:38.899Z,15.99
2022-10-22T10:31:23.292Z,16.01
2022-10-22T10:34:12.483Z,15.98
2022-10-22T10:37:03.005Z,15.98
2022-10-22T10:40:02.412Z,15.97
2022-10-22T10:42:46.573Z,15.94
2022-10-22T10:45:33.476Z,15.96
2022-10-22T10:47:59.855Z,15.97
2022-10-22T10:50:35.122Z,15.97
2022-10-22T10:53:21.651Z,15.95
2022-10-22T10:55:54.122Z,15.91
2022-10-22T10:58:46.163Z,15.94
2022-10-22T11:01:29.686Z,16.01
2022-10-22T11:04:28.562Z,15.91
2022-10-22T11:07:10.874Z,15.91
2022-10-22T11:09:46.162Z,15.92
2022-10-22T11:12:43.504Z,15.94
2022-10-22T11:15:32.404Z,15.92
2022-10-22T11:18:48.078Z,15.96
2022-10-22T11:21:23.658Z,15.91
2022-10-22T11:23:53.436Z,15.94
2022-10-22T11:26:39.003Z,15.96
2022-10-22T11:29:15.204Z,15.96
2022-10-22T11:31:43.063Z,15.98
2022-10-22T11:34:33.160Z,16.06
2022-10-22T11:37:02.811Z,16.06
2022-10-22T11:40:07.876Z,16.08
2022-10-22T11:42:38.663Z,16.11
2022-10-22T11:45:15.827Z,16.19
2022-10-22T11:48:11.728Z,16.24
2022-10-22T11:50:41.259Z,16.25
2022-10-22T11:53:13.920Z,16.29
2022-10-22T11:55:46.511Z,16.30
2022-10-22T11:58:28.269Z,16.30
2022-10-22T12:00:56.019Z,16.35
2022-10-22T12:03:28.493Z,16.37
2022-10-22T12:06:15.035Z,16.42
2022-10-22T12:08:56.627Z,16.43
2022-10-22T12:11:25.576Z,16.47
2022-10-22T12:14:10.457Z,16.44
2022-10-22T12:16:57.045Z,16.47
2022-10-22T12:19:27.805Z,16.50
2022-10-22T12:21:55.882Z,16.52
2022-10-22T12:24:24.546Z,16.59
2022-10-22T12:26:52.672Z,16.63
2022-10-22T12:29:23.631Z,16.63
2022-10-22T12:31:50.445Z,16.67
2022-10-22T12:34:19.402Z,16.74
2022-10-22T12:36:47.805Z,16.80
2022-10-22T12:39:18.793Z,16.81
2022-10-22T12:41:45.781Z,16.86
2022-10-22T12:44:17.711Z,16.88
2022-10-22T12:46:46.740Z,16.96
2022-10-22T12:49:22.032Z,17.36
2022-10-22T12:51:49.261Z,17.64
2022-10-22T12:54:29.729Z,17.97
2022-10-22T12:56:57.313Z,18.32
2022-10-22T12:59:35.206Z,18.48
2022-10-22T13:02:02.714Z,18.88
2022-10-22T13:04:36.489Z,19.00
2022-10-22T13:07:12.255Z,19.06
2022-10-22T13:09:41.219Z,19.26
2022-10-22T13:12:16.119Z,19.32
2022-10-22T13:14:44.472Z,19.32
2022-10-22T13:17:37.579Z,19.10
2022-10-22T13:20:25.975Z,18.85
2022-10-22T13:23:00.039Z,18.87
2022-10-22T13:25:40.754Z,18.64
2022-10-22T13:28:07.112Z,18.55
2022-10-22T13:30:36.759Z,18.31
2022-10-22T13:33:05.587Z,18.43
2022-10-22T13:35:36.025Z,18.50
2022-10-22T13:38:02.835Z,18.43
2022-10-22T13:40:29.396Z,18.50
2022-10-22T13:42:55.833Z,18.60
2022-10-22T13:45:22.377Z,18.40
2022-10-22T13:47:53.303Z,18.35
2022-10-22T13:50:21.198Z,18.09
2022-10-22T13:52:52.442Z,18.33
2022-10-22T13:55:20.509Z,18.42
2022-10-22T13:57:47.467Z,18.55
2022-10-22T14:00:17.124Z,18.52
2022-10-22T14:02:45.929Z,18.57
2022-10-22T14:05:13.070Z,18.75
2022-10-22T14:07:40.219Z,18.75
2022-10-22T14:10:18.935Z,18.87
2022-10-22T14:12:50.793Z,19.05
2022-10-22T14:15:23.955Z,19.22
2022-10-22T14:17:56.069Z,19.04
2022-10-22T14:20:29.326Z,19.09
2022-10-22T14:22:55.907Z,19.12
2022-10-22T14:25:26.765Z,19.12
2022-10-22T14:27:53.329Z,18.96
2022-10-22T14:30:23.682Z,18.97
2022-10-22T14:32:50.981Z,19.02
2022-10-22T14:35:20.257Z,19.12
2022-10-22T14:37:46.784Z,19.25
2022-10-22T14:40:17.178Z,19.41
2022-10-22T14:42:45.855Z,19.69
2022-10-22T14:45:26.278Z,19.83
2022-10-22T14:47:55.640Z,20.10
2022-10-22T14:50:22.185Z,20.28
2022-10-22T14:52:48.930Z,20.04
2022-10-22T14:55:17.847Z,19.97
2022-10-22T14:57:44.849Z,20.01
2022-10-22T15:00:14.566Z,20.30
2022-10-22T15:02:41.342Z,20.35
2022-10-22T15:05:08.708Z,20.15
2022-10-22T15:07:35.752Z,19.97
2022-10-22T15:10:02.321Z,19.94
2022-10-22T15:12:28.805Z,19.60
2022-10-22T15:14:55.247Z,19.49
2022-10-22T15:17:21.736Z,19.31
2022-10-22T15:19:48.152Z,19.18
2022-10-22T15:22:15.557Z,18.99
2022-10-22T15:24:45.330Z,18.92
2022-10-22T15:27:15.174Z,18.75
2022-10-22T15:29:42.690Z,18.63
2022-10-22T15:32:12.833Z,18.56
2022-10-22T15:34:40.375Z,18.46
2022-10-22T15:37:14.048Z,18.38
2022-10-22T15:39:41.997Z,18.30
2022-10-22T15:42:09.963Z,18.22
2022-10-22T15:44:36.676Z,18.14
2022-10-22T15:47:04.953Z,18.16
2022-10-22T15:49:31.445Z,18.15
2022-10-22T15:51:57.919Z,18.14
2022-10-22T15:54:28.472Z,18.10
2022-10-22T15:56:56.427Z,18.09
2022-10-22T15:59:23.101Z,18.07
2022-10-22T16:01:49.795Z,18.01
2022-10-22T16:04:16.339Z,17.94
2022-10-22T16:06:45.876Z,17.88
2022-10-22T16:09:15.533Z,17.76
2022-10-22T16:11:42.991Z,17.59
2022-10-22T16:14:12.641Z,17.47
2022-10-22T16:16:43.384Z,17.35
2022-10-22T16:19:11.650Z,17.22
2022-10-22T16:21:38.519Z,17.14
2022-10-22T16:24:06.642Z,17.03
2022-10-22T16:26:33.513Z,16.91
2022-10-22T16:29:00.028Z,16.81
2022-10-22T16:31:26.517Z,16.72
2022-10-22T16:33:53.243Z,16.64
2022-10-22T16:36:20.682Z,16.56
2022-10-22T16:38:48.389Z,16.50
2022-10-22T16:41:16.096Z,16.40
2022-10-22T16:43:44.315Z,16.33
2022-10-22T16:46:11.824Z,16.28
2022-10-22T16:48:40.592Z,16.27
2022-10-22T16:51:09.025Z,16.25
2022-10-22T16:53:36.618Z,16.23
2022-10-22T16:56:03.420Z,16.16
2022-10-22T16:58:30.026Z,16.10
2022-10-22T17:00:56.532Z,16.05
2022-10-22T17:03:24.604Z,16.01
2022-10-22T17:05:54.014Z,15.97
2022-10-22T17:08:20.411Z,15.95
2022-10-22T17:10:46.947Z,15.88
2022-10-22T17:13:13.391Z,15.86
2022-10-22T17:15:40.521Z,15.80
2022-10-22T17:18:07.029Z,15.77
2022-10-22T17:20:33.522Z,15.71
2022-10-22T17:22:59.923Z,15.66
2022-10-22T17:25:43.026Z,15.61
2022-10-22T17:28:12.894Z,15.57
2022-10-22T17:30:40.714Z,15.55
2022-10-22T17:33:08.183Z,15.48
2022-10-22T17:35:39.266Z,15.40
2022-10-22T17:38:06.666Z,15.38
2022-10-22T17:40:35.150Z,15.40
2022-10-22T17:43:01.586Z,15.41
2022-10-22T17:45:28.035Z,15.43
2022-10-22T17:47:56.656Z,15.41
2022-10-22T17:50:23.177Z,15.40
2022-10-22T17:52:49.770Z,15.37
2022-10-22T17:55:16.227Z,15.32
2022-10-22T17:57:42.745Z,15.32
2022-10-22T18:00:09.932Z,15.30
2022-10-22T18:02:36.474Z,15.29
2022-10-22T18:05:03.014Z,15.26
2022-10-22T18:07:29.437Z,15.23
2022-10-22T18:09:55.876Z,15.17
2022-10-22T18:12:22.322Z,15.15
2022-10-22T18:14:50.170Z,15.13
2022-10-22T18:17:16.607Z,15.12
2022-10-22T18:19:43.140Z,15.10
2022-10-22T18:22:09.609Z,15.06
2022-10-22T18:24:36.726Z,15.01
2022-10-22T18:27:03.974Z,15.01
2022-10-22T18:29:30.488Z,15.01
2022-10-22T18:31:56.965Z,15.00
2022-10-22T18:34:24.083Z,14.99
2022-10-22T18:36:50.659Z,15.00
2022-10-22T18:39:17.644Z,14.96
2022-10-22T18:41:44.176Z,14.99
2022-10-22T18:44:13.749Z,14.94
2022-10-22T18:46:40.460Z,14.88
2022-10-22T18:49:07.167Z,14.85
2022-10-22T18:51:36.155Z,14.77
2022-10-22T18:54:22.141Z,14.72
2022-10-22T18:56:49.893Z,14.69
2022-10-22T18:59:21.915Z,14.68
2022-10-22T19:01:48.849Z,14.65
2022-10-22T19:04:15.373Z,14.61
2022-10-22T19:06:45.263Z,14.58
2022-10-22T19:09:13.696Z,14.54
2022-10-22T19:11:40.327Z,14.51
2022-10-22T19:14:06.798Z,14.45
2022-10-22T19:16:35.004Z,14.43
2022-10-22T19:19:04.657Z,14.40
2022-10-22T19:21:31.469Z,14.37
2022-10-22T19:23:59.190Z,14.35
2022-10-22T19:26:27.556Z,14.33
2022-10-22T19:28:55.392Z,14.26
2022-10-22T19:31:24.826Z,14.15
2022-10-22T19:33:52.031Z,14.12
2022-10-22T19:36:19.729Z,14.07
2022-10-22T19:38:48.651Z,14.06
2022-10-22T19:41:18.867Z,14.05
2022-10-22T19:43:48.797Z,14.03
2022-10-22T19:46:15.658Z,13.98
2022-10-22T19:48:42.188Z,13.96
2022-10-22T19:51:14.604Z,13.91
2022-10-22T19:53:41.133Z,13.88
2022-10-22T19:56:10.751Z,13.86
2022-10-22T19:58:37.951Z,13.85
2022-10-22T20:01:09.390Z,13.79
2022-10-22T20:03:37.174Z,13.78
2022-10-22T20:06:05.579Z,13.78
2022-10-22T20:08:35.775Z,13.79
2022-10-22T20:11:02.510Z,13.80
2022-10-22T20:13:29.295Z,13.79
2022-10-22T20:15:56.785Z,13.73
2022-10-22T20:18:23.401Z,13.72
2022-10-22T20:20:50.218Z,13.67
2022-10-22T20:23:16.929Z,13.64
2022-10-22T20:25:45.444Z,13.57
2022-10-22T20:28:14.157Z,13.57
2022-10-22T20:30:42.643Z,13.51
2022-10-22T20:33:09.181Z,13.51
2022-10-22T20:35:36.344Z,13.50
2022-10-22T20:38:04.041Z,13.51
2022-10-22T20:40:32.300Z,13.51
2022-10-22T20:43:00.210Z,13.50
2022-10-22T20:45:27.514Z,13.45
2022-10-22T20:48:03.450Z,13.44
2022-10-22T20:50:31.992Z,13.43
2022-10-22T20:52:59.365Z,13.41
2022-10-22T20:55:26.883Z,13.40
2022-10-22T20:57:53.689Z,13.36
2022-10-22T21:00:20.225Z,13.32
2022-10-22T21:02:46.750Z,13.24
2022-10-22T21:05:13.221Z,13.23
2022-10-22T21:07:39.918Z,13.24
2022-10-22T21:10:07.022Z,13.23
2022-10-22T21:12:33.500Z,13.19
2022-10-22T21:14:59.926Z,13.17
2022-10-22T21:17:26.377Z,13.17
2022-10-22T21:19:52.817Z,13.15
2022-10-22T21:22:19.272Z,13.12
2022-10-22T21:24:45.701Z,13.10
2022-10-22T21:27:12.154Z,13.09
2022-10-22T21:29:38.586Z,13.06
2022-10-22T21:32:05.194Z,13.03
2022-10-22T21:34:35.487Z,13.02
2022-10-22T21:37:05.290Z,12.95
2022-10-22T21:39:31.735Z,12.94
2022-10-22T21:41:59.490Z,12.92
2022-10-22T21:44:25.955Z,12.90
2022-10-22T21:46:52.432Z,12.81
2022-10-22T21:49:18.954Z,12.78
2022-10-22T21:51:45.402Z,12.79
2022-10-22T21:54:12.672Z,12.79
2022-10-22T21:56:39.884Z,12.77
2022-10-22T21:59:07.258Z,12.71
2022-10-22T22:01:33.990Z,12.70
2022-10-22T22:04:00.837Z,12.69
2022-10-22T22:06:32.020Z,12.68
2022-10-22T22:08:59.915Z,12.65
2022-10-22T22:11:27.889Z,12.64
2022-10-22T22:13:55.630Z,12.63
2022-10-22T22:16:28.273Z,12.62
2022-10-22T22:18:57.867Z,12.58
2022-10-22T22:21:24.386Z,12.56
2022-10-22T22:23:51.201Z,12.53
2022-10-22T22:26:25.351Z,12.48
2022-10-22T22:28:55.588Z,12.44
2022-10-22T22:31:26.784Z,12.42
2022-10-22T22:34:22.612Z,12.39
2022-10-22T22:36:52.300Z,12.36
2022-10-22T22:39:22.532Z,12.33
2022-10-22T22:41:49.680Z,12.30
2022-10-22T22:44:16.310Z,12.27
2022-10-22T22:46:42.771Z,12.25
2022-10-22T22:49:09.219Z,12.21
2022-10-22T22:51:35.693Z,12.15
2022-10-22T22:54:02.210Z,12.08
2022-10-22T22:56:31.077Z,12.08
2022-10-22T22:58:58.147Z,12.09
2022-10-22T23:01:28.199Z,12.08
2022-10-22T23:04:04.053Z,12.10
2022-10-22T23:06:33.414Z,12.10
2022-10-22T23:09:00.520Z,12.07
2022-10-22T23:11:28.070Z,12.08
2022-10-22T23:14:00.215Z,12.11
2022-10-22T23:16:29.281Z,12.11
2022-10-22T23:18:56.866Z,12.12
2022-10-22T23:21:29.327Z,12.09
2022-10-22T23:23:58.623Z,12.02
2022-10-22T23:26:33.649Z,12.01
2022-10-22T23:29:01.873Z,12.00
2022-10-22T23:31:28.371Z,12.00
2022-10-22T23:33:54.874Z,11.99
2022-10-22T23:36:21.318Z,12.01
2022-10-22T23:38:48.863Z,12.00
2022-10-22T23:41:15.318Z,12.00
2022-10-22T23:43:41.905Z,11.95
2022-10-22T23:46:11.080Z,11.94
2022-10-22T23:48:41.431Z,11.94
2022-10-22T23:51:10.601Z,11.94
2022-10-22T23:53:37.689Z,11.94
2022-10-22T23:56:10.425Z,11.88
2022-10-22T23:58:37.327Z,11.88
